Time;durP1;ratioP1;P1;durP2;ratioP2;P2;SDS_P1;SDS_P2;PMS_P1;PMS_P2;Temp;Humidity;BMP_temperature;BMP_pressure;BME280_temperature;BME280_humidity;BME280_pressure;Samples;Min_cycle;Max_cycle;Signal;HPM_P1;HPM_P2
2021/03/20 00:00:33;;;;;;;15.18;7.07;;;0.10;90.30;;;;;;5034265;28;20193;-74
2021/03/20 00:02:58;;;;;;;12.20;7.07;;;0.00;90.40;;;;;;5017916;28;20181;-75
2021/03/20 00:05:25;;;;;;;15.83;7.67;;;0.10;90.70;;;;;;5028491;28;20646;-73
2021/03/20 00:07:52;;;;;;;15.63;7.45;;;0.10;90.60;;;;;;5037060;28;20206;-73
2021/03/20 00:10:19;;;;;;;11.65;7.38;;;0.00;90.50;;;;;;5036342;28;20220;-73
2021/03/20 00:12:47;;;;;;;14.05;6.95;;;0.00;90.50;;;;;;5038541;28;20176;-75
2021/03/20 00:15:15;;;;;;;15.30;7.55;;;0.00;90.50;;;;;;5035201;28;20208;-73
2021/03/20 00:17:42;;;;;;;14.13;7.32;;;0.00;90.50;;;;;;5031162;28;20869;-73
2021/03/20 00:20:12;;;;;;;16.60;7.88;;;0.00;90.30;;;;;;5046572;28;20184;-73
2021/03/20 00:22:37;;;;;;;17.60;7.40;;;0.00;90.50;;;;;;5039616;28;20217;-74
2021/03/20 00:25:06;;;;;;;13.57;7.20;;;0.00;90.60;;;;;;5028142;28;20236;-75
2021/03/20 00:27:32;;;;;;;15.75;7.30;;;0.00;90.70;;;;;;5040995;28;20928;-75
2021/03/20 00:29:57;;;;;;;13.13;6.97;;;0.00;90.80;;;;;;5033156;28;20224;-75
2021/03/20 00:32:23;;;;;;;12.57;6.70;;;0.00;90.80;;;;;;5041139;28;20435;-73
2021/03/20 00:34:49;;;;;;;16.77;8.20;;;0.00;90.80;;;;;;5029563;28;20769;-72
2021/03/20 00:37:15;;;;;;;14.30;7.80;;;0.00;90.80;;;;;;5021030;28;20434;-72
2021/03/20 00:39:42;;;;;;;17.87;8.00;;;0.00;90.90;;;;;;5043980;28;20197;-73
2021/03/20 00:42:08;;;;;;;13.30;7.28;;;0.10;91.00;;;;;;5034998;28;20887;-74
2021/03/20 00:44:34;;;;;;;17.85;7.68;;;0.00;91.00;;;;;;5039527;28;20221;-72
2021/03/20 00:47:00;;;;;;;13.63;7.28;;;0.00;91.00;;;;;;5039385;28;20199;-72
2021/03/20 00:49:26;;;;;;;15.13;8.15;;;0.00;91.00;;;;;;5045070;28;20212;-73
2021/03/20 00:51:52;;;;;;;16.17;7.23;;;0.00;91.10;;;;;;5039150;28;20185;-72
2021/03/20 00:54:18;;;;;;;14.53;7.50;;;0.00;91.20;;;;;;5047350;28;20224;-70
2021/03/20 00:56:44;;;;;;;17.50;7.63;;;0.00;91.30;;;;;;5050164;28;20422;-71
2021/03/20 00:59:10;;;;;;;20.33;7.70;;;0.10;91.40;;;;;;5037092;28;20447;-71
2021/03/20 01:01:36;;;;;;;14.37;8.10;;;0.10;91.30;;;;;;5048767;28;20419;-71
2021/03/20 01:04:01;;;;;;;13.03;6.53;;;0.20;91.40;;;;;;5047348;28;20623;-71
2021/03/20 01:06:28;;;;;;;14.60;7.60;;;0.20;91.40;;;;;;5028939;28;20916;-72
2021/03/20 01:08:56;;;;;;;17.23;7.80;;;0.20;91.30;;;;;;5029537;28;20447;-73
2021/03/20 01:11:25;;;;;;;14.43;7.18;;;0.30;91.20;;;;;;5049340;28;20180;-71
2021/03/20 01:13:51;;;;;;;11.10;6.72;;;0.40;90.90;;;;;;5048853;28;20252;-73
2021/03/20 01:16:18;;;;;;;17.17;7.75;;;0.40;90.60;;;;;;5032501;28;20212;-71
2021/03/20 01:18:43;;;;;;;19.08;8.55;;;0.40;90.50;;;;;;5054494;28;20181;-73
2021/03/20 01:21:10;;;;;;;15.70;7.97;;;0.50;90.60;;;;;;5045049;28;20750;-71
2021/03/20 01:23:37;;;;;;;13.23;7.70;;;0.50;90.50;;;;;;5041425;28;20204;-71
2021/03/20 01:26:03;;;;;;;16.25;7.05;;;0.50;90.40;;;;;;5041396;28;20204;-71
2021/03/20 01:28:32;;;;;;;14.05;6.70;;;0.60;90.30;;;;;;5032453;28;20219;-72
2021/03/20 01:30:59;;;;;;;15.05;6.95;;;0.60;90.30;;;;;;5049454;28;20199;-71
2021/03/20 01:33:25;;;;;;;14.48;7.00;;;0.70;90.00;;;;;;5048994;28;20219;-72
2021/03/20 01:35:51;;;;;;;16.17;6.82;;;0.70;90.00;;;;;;5018401;28;20661;-71
2021/03/20 01:38:18;;;;;;;13.60;7.28;;;0.80;90.00;;;;;;5031483;28;20193;-72
2021/03/20 01:40:49;;;;;;;14.05;7.50;;;0.90;89.90;;;;;;5037315;28;20181;-71
2021/03/20 01:43:16;;;;;;;15.35;8.25;;;0.90;89.50;;;;;;5021573;28;20224;-73
2021/03/20 01:45:43;;;;;;;14.15;7.70;;;0.90;89.60;;;;;;5041494;28;20632;-72
2021/03/20 01:48:36;;;;;;;12.70;7.30;;;1.00;89.60;;;;;;5035808;28;20654;-73
2021/03/20 01:51:10;;;;;;;12.38;6.95;;;1.00;89.30;;;;;;5035620;28;20737;-72
2021/03/20 01:53:44;;;;;;;12.48;7.15;;;1.10;88.90;;;;;;5049601;28;20786;-72
2021/03/20 01:56:23;;;;;;;15.20;6.68;;;1.10;87.40;;;;;;5042950;28;20191;-73
2021/03/20 01:58:51;;;;;;;14.13;7.75;;;1.20;86.20;;;;;;5041975;28;20184;-72
2021/03/20 02:01:26;;;;;;;14.07;6.32;;;1.20;85.60;;;;;;5039684;28;20189;-72
2021/03/20 02:03:53;;;;;;;13.60;7.07;;;1.30;85.60;;;;;;5037417;28;20561;-74
2021/03/20 02:06:20;;;;;;;15.05;7.07;;;1.30;85.30;;;;;;5042754;28;20188;-74
2021/03/20 02:08:49;;;;;;;12.02;6.60;;;1.30;85.20;;;;;;5051219;28;20181;-73
2021/03/20 02:11:16;;;;;;;9.65;6.90;;;1.30;84.90;;;;;;5032000;28;20615;-73
2021/03/20 02:14:10;;;;;;;12.88;7.30;;;1.30;85.00;;;;;;5045721;28;20217;-71
2021/03/20 02:16:50;;;;;;;14.95;7.30;;;1.30;84.90;;;;;;5046853;28;20271;-72
2021/03/20 02:19:21;;;;;;;15.50;6.70;;;1.20;85.20;;;;;;5037851;28;20254;-71
2021/03/20 02:21:47;;;;;;;10.77;6.65;;;1.20;85.50;;;;;;5036788;28;20195;-71
2021/03/20 02:24:28;;;;;;;18.47;8.00;;;1.30;85.50;;;;;;5041722;28;20206;-73
2021/03/20 02:26:56;;;;;;;11.60;6.90;;;1.30;85.70;;;;;;5032735;28;20196;-71
2021/03/20 02:29:34;;;;;;;13.10;7.22;;;1.30;85.30;;;;;;5032047;28;20569;-73
2021/03/20 02:32:32;;;;;;;14.10;7.55;;;1.30;85.30;;;;;;5032201;28;20667;-72
2021/03/20 02:35:12;;;;;;;14.10;7.53;;;1.40;85.50;;;;;;5002932;28;20234;-72
2021/03/20 02:37:50;;;;;;;13.98;7.15;;;1.40;85.50;;;;;;5024705;28;20238;-73
2021/03/20 02:40:26;;;;;;;13.82;7.03;;;1.40;85.60;;;;;;5030065;28;20196;-72
2021/03/20 02:43:05;;;;;;;13.30;7.72;;;1.30;85.30;;;;;;5035557;28;20182;-74
2021/03/20 02:45:38;;;;;;;11.90;7.25;;;1.20;86.20;;;;;;5031196;28;20189;-71
2021/03/20 02:48:19;;;;;;;15.77;7.70;;;1.10;86.80;;;;;;5045432;28;20220;-72
2021/03/20 02:51:07;;;;;;;15.73;7.13;;;1.20;87.00;;;;;;5044294;28;20274;-73
2021/03/20 02:54:37;;;;;;;14.68;7.60;;;1.10;87.10;;;;;;5039882;28;20311;-71
2021/03/20 02:57:23;;;;;;;12.93;7.22;;;1.20;87.10;;;;;;4948100;28;20300;-71
2021/03/20 03:00:14;;;;;;;13.95;7.05;;;1.30;87.30;;;;;;4940633;29;20675;-72
2021/03/20 03:02:42;;;;;;;17.02;7.35;;;1.30;87.60;;;;;;4935086;29;20191;-73
2021/03/20 03:05:16;;;;;;;14.32;7.25;;;1.40;87.60;;;;;;4950198;28;20211;-72
2021/03/20 03:07:49;;;;;;;16.92;7.70;;;1.50;87.00;;;;;;4934661;29;20741;-73
2021/03/20 03:10:29;;;;;;;13.82;7.57;;;1.40;86.50;;;;;;4933571;29;20187;-72
2021/03/20 03:13:20;;;;;;;12.25;6.80;;;1.40;86.60;;;;;;4934295;29;20203;-72
2021/03/20 03:15:51;;;;;;;14.93;7.60;;;1.30;86.80;;;;;;4942711;29;20211;-74
2021/03/20 03:18:27;;;;;;;15.45;7.47;;;1.20;87.00;;;;;;4935405;29;21072;-71
2021/03/20 03:20:57;;;;;;;14.02;7.20;;;1.10;87.70;;;;;;4950986;28;20320;-73
2021/03/20 03:23:26;;;;;;;19.58;9.20;;;1.20;88.30;;;;;;4951494;29;20207;-73
2021/03/20 03:26:06;;;;;;;14.13;8.02;;;1.20;88.40;;;;;;4951314;29;20694;-73
2021/03/20 03:28:32;;;;;;;13.35;7.55;;;1.20;88.70;;;;;;4954839;29;20198;-73
2021/03/20 03:31:11;;;;;;;16.30;7.55;;;1.20;88.90;;;;;;4952255;28;20191;-73
2021/03/20 03:33:58;;;;;;;13.88;8.35;;;1.30;89.00;;;;;;5018037;28;20264;-73
2021/03/20 03:36:25;;;;;;;14.68;7.25;;;1.20;88.90;;;;;;5018491;28;20240;-71
2021/03/20 03:38:54;;;;;;;16.00;7.78;;;1.20;89.30;;;;;;5041397;28;20681;-70
2021/03/20 03:41:26;;;;;;;15.00;7.63;;;1.20;89.60;;;;;;5037167;28;20220;-71
2021/03/20 03:43:53;;;;;;;14.07;8.07;;;1.20;89.90;;;;;;5028404;28;20288;-71
2021/03/20 03:46:25;;;;;;;15.73;7.75;;;1.20;89.70;;;;;;5030267;28;20228;-72
2021/03/20 03:48:53;;;;;;;17.30;8.35;;;1.30;90.00;;;;;;5041611;28;20200;-73
2021/03/20 03:51:20;;;;;;;15.02;7.93;;;1.30;89.90;;;;;;5043330;28;20672;-72
2021/03/20 03:53:46;;;;;;;14.00;7.43;;;1.20;89.70;;;;;;5043035;28;20232;-72
2021/03/20 03:56:29;;;;;;;13.27;7.50;;;1.20;90.00;;;;;;5034948;28;20180;-71
2021/03/20 03:59:01;;;;;;;15.07;8.05;;;1.10;90.10;;;;;;5036826;28;20196;-73
2021/03/20 04:01:52;;;;;;;15.32;7.60;;;1.10;90.20;;;;;;5039839;28;20220;-71
2021/03/20 04:04:23;;;;;;;13.23;7.47;;;1.10;90.40;;;;;;5041933;28;20213;-72
2021/03/20 04:06:59;;;;;;;13.85;7.78;;;1.00;90.40;;;;;;5043608;28;20283;-73
2021/03/20 04:09:49;;;;;;;12.00;7.97;;;0.90;90.30;;;;;;5018949;28;20554;-71
2021/03/20 04:12:33;;;;;;;14.40;7.30;;;1.00;90.50;;;;;;5033357;28;20695;-71
2021/03/20 04:15:23;;;;;;;16.60;7.63;;;1.10;90.60;;;;;;5048618;28;20330;-72
2021/03/20 04:18:11;;;;;;;16.38;8.02;;;1.20;90.50;;;;;;5040457;28;20620;-72
2021/03/20 04:20:46;;;;;;;13.73;8.02;;;1.10;90.30;;;;;;5018976;28;20674;-73
2021/03/20 04:23:17;;;;;;;13.68;7.20;;;1.10;90.10;;;;;;5034579;28;20192;-72
2021/03/20 04:25:55;;;;;;;14.15;7.45;;;1.10;90.00;;;;;;5041337;28;20597;-73
2021/03/20 04:28:42;;;;;;;14.45;8.13;;;1.10;89.60;;;;;;5043317;28;20200;-71
2021/03/20 04:31:17;;;;;;;13.45;7.50;;;1.10;89.30;;;;;;5030388;28;20192;-73
2021/03/20 04:33:51;;;;;;;11.93;6.85;;;1.20;89.70;;;;;;5032889;28;20219;-71
2021/03/20 04:36:30;;;;;;;16.13;7.97;;;1.20;89.30;;;;;;5021607;28;20192;-72
2021/03/20 04:38:57;;;;;;;11.65;6.70;;;1.20;89.20;;;;;;5043692;28;20242;-73
2021/03/20 04:41:25;;;;;;;14.23;8.15;;;1.20;89.20;;;;;;5049867;28;20185;-71
2021/03/20 04:43:51;;;;;;;15.38;7.85;;;1.20;89.20;;;;;;5042801;28;20211;-74
2021/03/20 04:46:21;;;;;;;17.35;7.95;;;1.20;88.90;;;;;;5048879;28;20675;-71
2021/03/20 04:49:16;;;;;;;15.95;7.95;;;1.10;89.20;;;;;;5029148;28;20325;-72
2021/03/20 04:51:47;;;;;;;15.35;8.20;;;1.00;89.70;;;;;;5004160;28;20204;-73
2021/03/20 04:54:17;;;;;;;15.52;7.72;;;0.90;90.10;;;;;;5034259;28;20212;-73
2021/03/20 04:57:01;;;;;;;16.73;7.50;;;0.90;90.30;;;;;;5043221;28;20181;-73
2021/03/20 04:59:53;;;;;;;13.10;7.35;;;0.90;90.30;;;;;;5042756;28;20181;-71
2021/03/20 05:02:25;;;;;;;15.82;8.10;;;0.70;90.50;;;;;;5048936;28;20188;-73
2021/03/20 05:04:55;;;;;;;15.43;8.00;;;0.70;90.90;;;;;;5049910;28;20208;-73
2021/03/20 05:07:22;;;;;;;13.95;7.80;;;0.70;91.10;;;;;;5050278;28;20258;-73
2021/03/20 05:09:56;;;;;;;16.73;7.70;;;0.70;91.10;;;;;;5037767;28;20624;-71
2021/03/20 05:12:26;;;;;;;16.80;8.55;;;0.70;91.30;;;;;;5042739;28;20280;-73
2021/03/20 05:15:00;;;;;;;14.40;7.97;;;0.70;91.30;;;;;;5040593;28;20255;-73
2021/03/20 05:17:27;;;;;;;14.05;7.80;;;0.70;91.20;;;;;;5023632;28;20216;-72
2021/03/20 05:19:52;;;;;;;13.55;7.28;;;0.60;91.20;;;;;;5034442;28;20203;-73
2021/03/20 05:22:28;;;;;;;12.60;7.63;;;0.60;91.30;;;;;;5029828;28;20649;-73
2021/03/20 05:24:55;;;;;;;12.75;6.57;;;0.70;91.30;;;;;;5031191;28;20209;-72
2021/03/20 05:27:30;;;;;;;12.88;6.50;;;0.70;91.30;;;;;;5039927;28;20243;-73
2021/03/20 05:29:57;;;;;;;14.50;7.75;;;0.70;91.20;;;;;;5041473;28;20185;-73
2021/03/20 05:32:31;;;;;;;14.77;8.35;;;0.80;91.00;;;;;;5028783;28;20209;-73
2021/03/20 05:34:59;;;;;;;15.45;7.68;;;0.70;90.90;;;;;;5031114;28;20244;-71
2021/03/20 05:37:37;;;;;;;14.88;7.45;;;0.60;91.00;;;;;;5019949;28;20276;-72
2021/03/20 05:40:16;;;;;;;16.42;7.80;;;0.60;91.20;;;;;;5041533;28;20189;-73
2021/03/20 05:42:51;;;;;;;15.23;7.75;;;0.50;91.30;;;;;;5032534;28;20192;-73
2021/03/20 05:45:28;;;;;;;16.15;7.80;;;0.50;91.70;;;;;;5037757;28;20281;-71
2021/03/20 05:48:18;;;;;;;12.68;7.10;;;0.60;91.70;;;;;;5045206;28;20667;-71
2021/03/20 05:51:15;;;;;;;14.63;7.88;;;0.60;91.50;;;;;;5029273;28;20284;-73
2021/03/20 05:54:00;;;;;;;14.70;8.05;;;0.60;91.40;;;;;;5037584;28;20217;-72
2021/03/20 05:57:19;;;;;;;15.32;7.28;;;0.60;91.50;;;;;;5037605;28;20181;-72
2021/03/20 06:00:24;;;;;;;13.77;8.10;;;0.60;91.50;;;;;;4995533;28;20277;-72
2021/03/20 06:03:21;;;;;;;16.13;7.65;;;0.50;91.40;;;;;;5014355;28;20197;-73
2021/03/20 06:05:53;;;;;;;15.98;8.10;;;0.40;91.20;;;;;;4992081;28;20273;-72
2021/03/20 06:08:29;;;;;;;17.67;8.23;;;0.20;91.30;;;;;;5007050;28;20625;-71
2021/03/20 06:11:24;;;;;;;13.38;7.18;;;0.30;91.80;;;;;;4989388;28;20280;-72
2021/03/20 06:14:21;;;;;;;12.52;7.40;;;0.30;91.80;;;;;;5007699;28;20230;-72
2021/03/20 06:17:02;;;;;;;15.93;8.30;;;0.40;91.50;;;;;;5010038;28;20196;-73
2021/03/20 06:19:47;;;;;;;14.30;7.50;;;0.50;91.80;;;;;;5010793;28;20190;-72
2021/03/20 06:22:32;;;;;;;11.32;6.45;;;0.60;91.50;;;;;;5010355;28;20224;-71
2021/03/20 06:25:25;;;;;;;15.60;6.90;;;0.70;91.10;;;;;;4999650;28;20209;-73
2021/03/20 06:27:53;;;;;;;14.93;7.50;;;0.60;89.60;;;;;;4983345;28;20226;-72
2021/03/20 06:30:40;;;;;;;14.63;6.85;;;0.50;89.60;;;;;;4996563;28;20189;-71
2021/03/20 06:33:45;;;;;;;14.40;7.13;;;0.40;88.40;;;;;;5011678;28;20284;-71
2021/03/20 06:36:19;;;;;;;15.45;6.35;;;0.50;88.60;;;;;;5011307;28;20182;-71
2021/03/20 06:38:55;;;;;;;8.82;6.00;;;0.60;88.00;;;;;;5037562;28;20211;-73
2021/03/20 06:41:37;;;;;;;11.70;6.00;;;0.50;87.40;;;;;;5046625;28;20263;-70
2021/03/20 06:44:21;;;;;;;11.95;6.28;;;0.50;87.80;;;;;;5023782;28;20623;-70
2021/03/20 06:46:49;;;;;;;12.38;6.47;;;0.60;87.10;;;;;;5022894;28;20189;-72
2021/03/20 06:49:27;;;;;;;10.18;5.13;;;0.70;87.30;;;;;;5035824;28;20691;-72
2021/03/20 06:51:54;;;;;;;8.60;5.45;;;0.60;85.90;;;;;;5053636;28;20198;-71
2021/03/20 06:54:22;;;;;;;10.90;5.85;;;0.50;85.30;;;;;;5038084;28;20209;-71
2021/03/20 06:56:50;;;;;;;13.15;6.15;;;0.50;86.20;;;;;;5037346;28;20189;-70
2021/03/20 06:59:16;;;;;;;9.80;5.15;;;0.50;85.60;;;;;;5053157;28;20191;-73
2021/03/20 07:02:03;;;;;;;10.18;5.35;;;0.60;85.30;;;;;;5044615;28;20212;-72
2021/03/20 07:04:44;;;;;;;8.52;4.63;;;0.70;83.10;;;;;;5036701;28;20212;-74
2021/03/20 07:07:15;;;;;;;8.23;4.53;;;0.70;81.70;;;;;;5050426;28;20200;-73
2021/03/20 07:09:43;;;;;;;9.35;4.65;;;0.60;80.60;;;;;;5029906;28;20185;-72
2021/03/20 07:12:18;;;;;;;12.32;4.65;;;0.60;81.20;;;;;;5048618;28;20184;-72
2021/03/20 07:14:45;;;;;;;10.77;5.68;;;0.70;81.50;;;;;;5042509;28;20862;-73
2021/03/20 07:17:27;;;;;;;12.05;4.75;;;0.80;80.80;;;;;;5047724;28;20184;-72
2021/03/20 07:20:00;;;;;;;9.73;5.03;;;0.80;80.20;;;;;;5047104;28;20193;-73
2021/03/20 07:22:28;;;;;;;9.57;4.60;;;0.70;80.20;;;;;;5035861;28;20232;-74
2021/03/20 07:24:54;;;;;;;8.55;4.90;;;0.70;80.00;;;;;;5045794;28;20228;-73
2021/03/20 07:27:29;;;;;;;11.63;5.60;;;0.60;79.90;;;;;;5042905;28;20192;-71
2021/03/20 07:30:07;;;;;;;11.80;4.65;;;0.60;80.00;;;;;;5040193;28;20410;-72
2021/03/20 07:32:38;;;;;;;7.57;4.40;;;0.70;79.50;;;;;;5040110;28;20667;-72
2021/03/20 07:35:25;;;;;;;11.13;5.13;;;0.60;78.30;;;;;;5034932;28;20212;-73
2021/03/20 07:37:52;;;;;;;10.73;4.50;;;0.80;79.00;;;;;;5028465;28;20284;-72
2021/03/20 07:40:24;;;;;;;7.15;4.88;;;0.90;77.70;;;;;;5051644;28;20229;-73
2021/03/20 07:42:49;;;;;;;7.78;4.32;;;0.90;77.10;;;;;;5049149;28;20196;-74
2021/03/20 07:45:18;;;;;;;11.70;4.50;;;0.80;77.00;;;;;;5034120;28;20216;-73
2021/03/20 07:47:54;;;;;;;8.02;4.53;;;1.00;77.30;;;;;;5033590;28;20422;-76
2021/03/20 07:50:22;;;;;;;7.75;4.20;;;1.10;73.70;;;;;;5025814;28;20208;-73
2021/03/20 07:53:11;;;;;;;10.98;5.53;;;1.10;74.50;;;;;;5046277;28;20188;-74
2021/03/20 07:56:04;;;;;;;9.27;4.80;;;1.10;74.60;;;;;;5047150;28;20192;-72
2021/03/20 07:58:39;;;;;;;9.85;5.00;;;1.20;74.00;;;;;;5037315;28;20181;-74
2021/03/20 08:01:13;;;;;;;10.25;4.85;;;1.00;74.20;;;;;;5041214;28;20180;-74
2021/03/20 08:04:07;;;;;;;6.97;4.25;;;1.00;73.60;;;;;;5051368;28;20225;-74
2021/03/20 08:06:39;;;;;;;9.13;4.15;;;1.30;73.50;;;;;;5039056;28;20196;-72
2021/03/20 08:09:18;;;;;;;7.18;4.45;;;1.40;72.10;;;;;;5036348;28;20259;-72
2021/03/20 08:12:05;;;;;;;10.00;5.20;;;1.40;72.40;;;;;;5051358;28;20180;-72
2021/03/20 08:14:54;;;;;;;9.30;4.15;;;1.50;70.70;;;;;;5046472;28;20303;-73
2021/03/20 08:17:20;;;;;;;8.35;4.32;;;1.50;69.50;;;;;;5031752;28;20191;-73
2021/03/20 08:19:48;;;;;;;9.82;4.15;;;1.50;69.10;;;;;;5031737;28;20196;-71
2021/03/20 08:22:48;;;;;;;11.18;3.95;;;1.50;68.30;;;;;;5044691;28;20284;-75
2021/03/20 08:25:43;;;;;;;4.55;3.28;;;1.40;65.00;;;;;;5052347;28;20208;-74
2021/03/20 08:28:19;;;;;;;4.95;3.28;;;1.10;65.30;;;;;;5038094;28;20189;-73
2021/03/20 08:31:06;;;;;;;6.22;3.80;;;1.00;65.40;;;;;;5030463;28;20515;-72
2021/03/20 08:33:50;;;;;;;8.15;4.10;;;1.00;65.10;;;;;;5044614;28;20212;-73
2021/03/20 08:36:30;;;;;;;7.90;3.70;;;1.20;65.30;;;;;;5025302;28;20188;-72
2021/03/20 08:39:38;;;;;;;6.68;3.80;;;1.40;64.70;;;;;;5029702;28;20228;-73
2021/03/20 08:42:45;;;;;;;7.45;4.00;;;1.30;65.60;;;;;;5025640;28;20211;-72
2021/03/20 08:45:20;;;;;;;8.70;3.78;;;1.50;64.20;;;;;;5023663;28;20300;-73
2021/03/20 08:47:53;;;;;;;8.68;4.30;;;1.70;63.80;;;;;;5028956;28;20208;-73
2021/03/20 08:50:50;;;;;;;5.97;3.60;;;1.80;63.80;;;;;;5032372;28;20201;-72
2021/03/20 08:53:22;;;;;;;7.88;3.70;;;1.30;63.10;;;;;;5030905;28;20207;-73
2021/03/20 08:56:08;;;;;;;6.97;3.20;;;1.50;63.70;;;;;;5049538;28;20672;-74
2021/03/20 08:59:02;;;;;;;7.68;3.60;;;1.70;59.70;;;;;;5035048;28;20523;-71
2021/03/20 09:01:40;;;;;;;7.95;3.40;;;1.80;59.90;;;;;;5050120;28;20551;-74
2021/03/20 09:04:12;;;;;;;6.55;3.60;;;1.50;62.00;;;;;;5050222;28;20231;-71
2021/03/20 09:06:47;;;;;;;9.65;4.30;;;1.40;62.00;;;;;;5050408;28;20184;-75
2021/03/20 09:09:33;;;;;;;5.78;3.15;;;1.40;61.00;;;;;;5043453;28;20177;-73
2021/03/20 09:12:21;;;;;;;5.82;3.30;;;1.20;58.20;;;;;;5031644;28;20572;-77
2021/03/20 09:14:48;;;;;;;5.72;3.72;;;1.20;61.20;;;;;;5034714;28;20231;-77
2021/03/20 09:17:20;;;;;;;6.78;3.55;;;1.40;61.50;;;;;;5035223;28;20274;-75
2021/03/20 09:19:54;;;;;;;6.07;3.70;;;1.70;60.60;;;;;;5037089;28;20188;-76
2021/03/20 09:22:26;;;;;;;5.78;3.70;;;1.90;60.10;;;;;;5035736;28;20192;-74
2021/03/20 09:25:25;;;;;;;6.70;3.88;;;2.00;59.70;;;;;;5028396;28;20220;-75
2021/03/20 09:28:27;;;;;;;5.82;3.80;;;1.90;60.60;;;;;;5030598;28;20204;-76
2021/03/20 09:30:59;;;;;;;4.60;3.30;;;1.90;59.60;;;;;;5027460;28;20185;-74
2021/03/20 09:33:28;;;;;;;4.43;3.10;;;2.20;56.00;;;;;;5040641;28;20205;-75
2021/03/20 09:35:57;;;;;;;4.63;2.85;;;2.30;50.90;;;;;;5033226;28;20191;-75
2021/03/20 09:38:35;;;;;;;6.25;3.40;;;2.40;51.40;;;;;;5050517;28;20621;-75
2021/03/20 09:41:07;;;;;;;4.25;2.97;;;2.40;53.40;;;;;;5031475;28;20184;-75
2021/03/20 09:43:58;;;;;;;5.70;2.73;;;2.60;52.20;;;;;;5030854;28;20209;-74
2021/03/20 09:46:39;;;;;;;6.63;2.70;;;2.90;44.10;;;;;;5028469;28;20427;-75
2021/03/20 09:49:07;;;;;;;5.88;2.60;;;3.10;43.90;;;;;;5042839;28;20224;-74
2021/03/20 09:51:52;;;;;;;8.15;5.00;;;3.10;42.30;;;;;;5044401;28;20207;-74
2021/03/20 09:57:06;;;;;;;3.75;2.80;;;2.80;47.00;;;;;;5012806;28;20202;-73
2021/03/20 09:59:35;;;;;;;4.22;2.70;;;2.90;46.60;;;;;;5029916;28;20223;-79
2021/03/20 10:02:09;;;;;;;5.35;3.65;;;2.90;46.90;;;;;;5054884;28;20196;-80
2021/03/20 10:04:35;;;;;;;6.53;4.18;;;3.10;46.70;;;;;;5040182;28;20208;-80
2021/03/20 10:07:25;;;;;;;5.17;3.50;;;3.40;46.20;;;;;;5042269;28;20284;-76
2021/03/20 10:10:16;;;;;;;16.17;3.22;;;3.20;44.60;;;;;;5032463;28;20235;-70
2021/03/20 10:12:44;;;;;;;6.47;3.17;;;3.40;44.90;;;;;;5029651;28;20234;-73
2021/03/20 10:15:14;;;;;;;8.90;2.95;;;3.50;43.70;;;;;;5029930;28;20228;-73
2021/03/20 10:17:57;;;;;;;4.45;2.40;;;3.70;43.90;;;;;;5028219;28;20232;-73
2021/03/20 10:20:45;;;;;;;5.97;2.83;;;4.00;43.40;;;;;;5026424;28;20207;-73
2021/03/20 10:23:40;;;;;;;6.57;3.00;;;3.80;40.70;;;;;;5042005;28;20427;-73
2021/03/20 10:26:20;;;;;;;8.02;2.55;;;3.30;39.90;;;;;;5033049;28;20206;-74
2021/03/20 10:28:59;;;;;;;4.13;2.53;;;3.10;41.10;;;;;;5051256;28;20176;-72
2021/03/20 10:31:28;;;;;;;4.13;2.78;;;3.10;40.70;;;;;;5049749;28;20587;-75
2021/03/20 10:34:10;;;;;;;5.25;2.78;;;2.90;40.70;;;;;;5040021;28;20292;-73
2021/03/20 10:36:39;;;;;;;5.10;3.40;;;3.00;41.20;;;;;;5041889;28;20181;-75
2021/03/20 10:39:30;;;;;;;4.10;2.75;;;2.90;42.20;;;;;;5034570;28;20204;-72
2021/03/20 10:42:05;;;;;;;9.85;2.97;;;2.90;42.60;;;;;;5042489;28;20195;-72
2021/03/20 10:44:37;;;;;;;6.15;2.80;;;2.80;41.10;;;;;;5028682;28;20251;-73
2021/03/20 10:47:12;;;;;;;4.73;2.60;;;2.90;40.70;;;;;;5052900;28;20191;-74
2021/03/20 10:49:42;;;;;;;5.90;2.73;;;3.20;40.70;;;;;;5041796;28;20493;-74
2021/03/20 10:52:24;;;;;;;6.03;2.60;;;3.40;40.00;;;;;;5033181;28;20424;-74
2021/03/20 10:54:54;;;;;;;3.70;2.33;;;3.30;39.80;;;;;;5031596;28;20455;-72
2021/03/20 10:57:24;;;;;;;4.43;3.00;;;3.50;39.80;;;;;;5051466;28;20513;-74
2021/03/20 10:59:51;;;;;;;6.30;2.90;;;3.60;39.90;;;;;;5050909;28;20463;-72
2021/03/20 11:02:30;;;;;;;4.77;2.50;;;4.40;40.70;;;;;;5044670;28;20432;-73
2021/03/20 11:05:31;;;;;;;6.53;3.90;;;5.20;37.80;;;;;;5033648;28;20493;-72
2021/03/20 11:08:19;;;;;;;4.10;2.60;;;5.20;38.40;;;;;;5028643;28;20446;-73
2021/03/20 11:11:06;;;;;;;3.87;2.63;;;4.90;38.60;;;;;;4989149;28;21103;-74
2021/03/20 11:13:40;;;;;;;4.50;2.80;;;5.10;38.00;;;;;;5036457;28;20517;-73
2021/03/20 11:16:46;;;;;;;3.60;2.50;;;5.10;36.80;;;;;;5016839;28;20428;-73
2021/03/20 11:19:12;;;;;;;6.10;2.57;;;4.70;37.80;;;;;;5005736;28;20439;-73
2021/03/20 11:21:46;;;;;;;3.37;2.60;;;4.80;37.50;;;;;;5017518;28;20863;-73
2021/03/20 11:24:33;;;;;;;4.67;2.73;;;4.80;37.20;;;;;;4992416;28;20221;-72
2021/03/20 11:27:22;;;;;;;5.17;2.90;;;4.60;38.80;;;;;;5012409;28;20432;-72
2021/03/20 11:29:51;;;;;;;7.40;3.03;;;5.00;39.50;;;;;;4998557;28;20429;-72
2021/03/20 11:32:39;;;;;;;4.13;2.60;;;5.10;39.40;;;;;;5008107;28;20431;-72
2021/03/20 11:35:14;;;;;;;4.93;3.07;;;5.00;40.70;;;;;;5025519;28;20487;-72
2021/03/20 11:37:40;;;;;;;5.20;3.03;;;5.00;39.50;;;;;;5021313;28;20578;-72
2021/03/20 11:40:21;;;;;;;6.27;2.90;;;5.30;37.90;;;;;;5029559;28;20519;-73
2021/03/20 11:42:56;;;;;;;4.17;3.03;;;4.90;38.80;;;;;;5022352;28;20800;-71
2021/03/20 11:45:37;;;;;;;6.00;2.87;;;5.00;39.20;;;;;;5020057;28;20583;-72
2021/03/20 11:48:23;;;;;;;4.97;3.00;;;5.00;38.30;;;;;;5043375;28;20810;-72
2021/03/20 11:50:55;;;;;;;5.63;3.13;;;5.00;38.40;;;;;;5044500;28;20429;-72
2021/03/20 11:53:33;;;;;;;6.53;2.77;;;5.20;38.60;;;;;;5038693;28;20910;-72
2021/03/20 11:55:59;;;;;;;5.83;3.50;;;5.30;38.30;;;;;;5037485;28;20426;-72
2021/03/20 11:58:33;;;;;;;5.40;3.40;;;5.60;38.70;;;;;;5041482;28;20981;-73
2021/03/20 12:01:20;;;;;;;6.37;3.47;;;6.00;37.50;;;;;;5044078;28;20420;-71
2021/03/20 12:03:47;;;;;;;5.30;3.17;;;5.70;38.30;;;;;;5031313;28;20551;-73
2021/03/20 12:06:33;;;;;;;4.50;2.90;;;5.60;38.30;;;;;;5037012;28;20740;-74
2021/03/20 12:09:01;;;;;;;6.50;3.40;;;5.80;37.90;;;;;;5037281;28;20527;-73
2021/03/20 12:11:46;;;;;;;3.20;2.63;;;5.90;37.90;;;;;;5017837;28;20981;-73
2021/03/20 12:14:34;;;;;;;5.50;3.20;;;5.60;37.40;;;;;;5020940;28;21130;-73
2021/03/20 12:17:09;;;;;;;6.27;3.87;;;5.60;37.80;;;;;;5033137;28;20444;-73
2021/03/20 12:19:56;;;;;;;7.17;3.63;;;5.60;38.20;;;;;;5043535;28;20884;-72
2021/03/20 12:22:38;;;;;;;5.87;3.20;;;5.70;38.30;;;;;;5044274;28;20432;-73
2021/03/20 12:25:11;;;;;;;5.37;3.30;;;6.20;37.10;;;;;;5036073;28;20482;-73
2021/03/20 12:27:38;;;;;;;6.87;3.60;;;6.80;37.10;;;;;;5039147;28;20461;-75
2021/03/20 12:30:27;;;;;;;7.60;3.90;;;7.00;35.10;;;;;;5022278;28;20423;-73
2021/03/20 12:32:55;;;;;;;8.23;3.40;;;6.30;35.50;;;;;;5045798;28;21062;-72
2021/03/20 12:35:26;;;;;;;8.17;3.77;;;6.00;36.60;;;;;;5032201;28;20436;-73
2021/03/20 12:38:24;;;;;;;9.20;3.77;;;6.20;37.20;;;;;;5043647;28;20449;-75
2021/03/20 12:40:59;;;;;;;6.27;3.63;;;6.30;37.50;;;;;;5044527;28;20469;-72
2021/03/20 12:43:30;;;;;;;7.03;3.73;;;5.80;38.00;;;;;;5031071;28;20447;-72
2021/03/20 12:46:01;;;;;;;5.60;3.93;;;5.80;38.00;;;;;;5045325;28;20418;-72
2021/03/20 12:48:27;;;;;;;6.13;3.43;;;5.10;39.90;;;;;;5048055;28;20538;-72
2021/03/20 12:51:04;;;;;;;5.70;3.63;;;5.00;40.70;;;;;;5047287;28;20783;-73
2021/03/20 12:53:31;;;;;;;10.93;4.20;;;5.20;41.50;;;;;;5033112;28;20463;-72
2021/03/20 12:55:56;;;;;;;9.23;3.87;;;4.90;41.80;;;;;;5033303;28;20664;-72
2021/03/20 12:58:22;;;;;;;7.70;4.20;;;4.80;41.40;;;;;;5034784;28;20514;-72
2021/03/20 13:00:48;;;;;;;6.53;3.97;;;5.40;41.20;;;;;;5044057;28;20934;-74
2021/03/20 13:03:14;;;;;;;5.03;3.00;;;5.80;39.50;;;;;;5034528;28;20191;-73
2021/03/20 13:05:42;;;;;;;5.50;3.57;;;6.00;38.40;;;;;;5034397;28;20471;-72
2021/03/20 13:08:09;;;;;;;5.03;3.33;;;6.20;38.30;;;;;;5036756;28;20192;-73
2021/03/20 13:10:35;;;;;;;6.17;3.80;;;6.10;39.00;;;;;;5037651;28;20482;-72
2021/03/20 13:13:01;;;;;;;5.80;3.63;;;5.80;39.80;;;;;;5030147;28;20420;-72
2021/03/20 13:15:27;;;;;;;5.47;3.40;;;5.90;39.90;;;;;;5027767;28;20208;-72
2021/03/20 13:17:53;;;;;;;5.00;3.30;;;5.60;39.20;;;;;;5027775;28;20423;-72
2021/03/20 13:20:21;;;;;;;5.43;3.50;;;5.30;39.00;;;;;;5040004;28;20196;-72
2021/03/20 13:22:47;;;;;;;8.17;4.10;;;5.10;39.80;;;;;;5040769;28;20694;-72
2021/03/20 13:25:33;;;;;;;8.47;4.10;;;5.00;40.80;;;;;;5038534;28;21175;-72
2021/03/20 13:27:59;;;;;;;8.50;4.13;;;5.10;41.20;;;;;;5026505;28;20472;-71
2021/03/20 13:30:28;;;;;;;6.50;3.73;;;5.10;41.50;;;;;;5035350;28;20454;-72
2021/03/20 13:32:55;;;;;;;7.40;3.93;;;5.00;41.40;;;;;;5033273;28;20431;-72
2021/03/20 13:35:23;;;;;;;7.30;3.70;;;5.20;41.90;;;;;;5036072;28;21135;-71
2021/03/20 13:37:49;;;;;;;5.17;3.70;;;5.80;41.40;;;;;;5045115;28;20426;-73